Time;durP1;ratioP1;P1;durP2;ratioP2;P2;SDS_P1;SDS_P2;PMS_P1;PMS_P2;Temp;Humidity;BMP_temperature;BMP_pressure;BME280_temperature;BME280_humidity;BME280_pressure;Samples;Min_cycle;Max_cycle;Signal;HPM_P1;HPM_P2
2021/04/21 00:01:10;;;;;;;2.33;2.13;;;10.20;97.90;;;;;;5104441;28;20215;-68
2021/04/21 00:03:37;;;;;;;2.20;2.00;;;10.20;98.00;;;;;;5110970;27;20235;-68
2021/04/21 00:06:07;;;;;;;3.03;2.27;;;10.20;98.10;;;;;;5112635;27;20635;-68
2021/04/21 00:08:36;;;;;;;2.00;1.90;;;10.20;98.30;;;;;;5109723;28;21105;-68
2021/04/21 00:11:04;;;;;;;2.07;1.90;;;10.20;98.40;;;;;;5110116;28;20605;-68
2021/04/21 00:13:32;;;;;;;2.50;2.30;;;10.20;98.50;;;;;;5110436;28;20203;-68
2021/04/21 00:15:58;;;;;;;3.40;2.33;;;10.20;98.70;;;;;;5108698;27;20215;-68
2021/04/21 00:18:27;;;;;;;2.63;2.43;;;11.00;99.10;;;;;;5108656;28;20195;-68
2021/04/21 00:20:57;;;;;;;3.83;2.10;;;10.20;98.70;;;;;;5112306;27;20235;-68
2021/04/21 00:23:27;;;;;;;2.20;2.00;;;10.20;98.80;;;;;;5111398;28;20271;-68
2021/04/21 00:25:56;;;;;;;2.27;2.07;;;10.10;98.80;;;;;;5110825;27;20250;-68
2021/04/21 00:28:29;;;;;;;2.77;2.17;;;10.10;99.10;;;;;;5110923;27;20679;-68
2021/04/21 00:30:56;;;;;;;2.30;2.10;;;10.10;98.90;;;;;;5112270;27;20242;-68
2021/04/21 00:33:23;;;;;;;2.90;2.33;;;10.10;99.00;;;;;;5110742;28;20627;-68
2021/04/21 00:35:53;;;;;;;2.83;2.43;;;10.10;99.00;;;;;;5111137;27;20196;-66
2021/04/21 00:38:24;;;;;;;2.50;2.13;;;10.10;99.10;;;;;;5110316;28;20291;-67
2021/04/21 00:40:56;;;;;;;3.70;2.77;;;10.10;99.10;;;;;;5105339;27;20388;-67
2021/04/21 00:43:29;;;;;;;3.23;2.30;;;10.00;99.10;;;;;;5109141;27;20274;-67
2021/04/21 00:46:07;;;;;;;4.13;2.23;;;10.00;99.20;;;;;;5109693;27;20289;-68
2021/04/21 00:48:50;;;;;;;4.40;2.90;;;10.00;99.30;;;;;;5110137;28;20204;-68
2021/04/21 00:51:24;;;;;;;3.30;2.40;;;10.00;99.40;;;;;;5106763;27;20394;-68
2021/04/21 00:54:05;;;;;;;4.47;2.80;;;9.90;99.90;;;;;;5109332;28;20314;-67
2021/04/21 00:56:42;;;;;;;3.97;2.40;;;9.90;99.90;;;;;;5111013;27;20206;-68
2021/04/21 00:59:18;;;;;;;2.93;2.53;;;9.90;99.90;;;;;;5108044;28;20668;-68
2021/04/21 01:01:46;;;;;;;3.73;2.53;;;9.90;99.90;;;;;;5111655;27;20257;-68
2021/04/21 01:04:14;;;;;;;4.70;3.03;;;9.90;99.90;;;;;;5117617;27;20192;-68
2021/04/21 01:06:47;;;;;;;3.87;2.60;;;9.80;99.90;;;;;;5108920;28;20196;-67
2021/04/21 01:09:19;;;;;;;4.90;3.00;;;9.80;99.90;;;;;;5108307;27;20230;-68
2021/04/21 01:11:50;;;;;;;5.07;3.00;;;9.80;99.90;;;;;;5111530;27;20212;-68
2021/04/21 01:14:25;;;;;;;5.67;3.20;;;9.80;99.90;;;;;;5111446;27;20260;-67
2021/04/21 01:16:57;;;;;;;7.47;3.80;;;9.80;99.90;;;;;;5108427;28;20240;-68
2021/04/21 01:19:36;;;;;;;5.77;3.67;;;9.70;99.90;;;;;;5116229;27;20199;-67
2021/04/21 01:22:11;;;;;;;4.23;3.00;;;9.70;99.90;;;;;;5109063;28;20219;-68
2021/04/21 01:24:50;;;;;;;6.67;2.93;;;9.70;99.90;;;;;;5110262;27;20761;-68
2021/04/21 01:27:23;;;;;;;4.03;3.03;;;9.60;99.90;;;;;;5124049;27;20620;-68
2021/04/21 01:29:54;;;;;;;6.53;3.30;;;9.60;99.90;;;;;;5109012;27;20207;-68
2021/04/21 01:32:25;;;;;;;6.30;4.10;;;9.60;99.90;;;;;;5107982;28;20229;-68
2021/04/21 01:34:55;;;;;;;3.87;3.03;;;9.60;99.90;;;;;;5109716;28;20202;-68
2021/04/21 01:37:27;;;;;;;6.57;3.27;;;9.60;99.90;;;;;;5110192;28;20225;-68
2021/04/21 01:39:57;;;;;;;5.60;3.37;;;9.60;99.90;;;;;;5105316;28;20248;-67
2021/04/21 01:42:27;;;;;;;4.53;3.30;;;9.50;99.90;;;;;;5105730;28;20693;-66
2021/04/21 01:44:56;;;;;;;6.13;3.30;;;9.50;99.90;;;;;;5114282;27;20206;-66
2021/04/21 01:47:23;;;;;;;6.53;3.70;;;9.50;99.90;;;;;;5113184;27;20290;-68
2021/04/21 01:49:54;;;;;;;6.00;3.53;;;9.50;99.90;;;;;;5109971;28;20754;-68
2021/04/21 01:52:55;;;;;;;9.60;3.97;;;9.50;99.90;;;;;;5107057;28;20219;-67
2021/04/21 01:55:46;;;;;;;7.30;3.77;;;9.50;99.90;;;;;;5049891;28;20269;-68
2021/04/21 01:58:26;;;;;;;6.67;3.57;;;9.50;99.90;;;;;;5045498;28;20447;-68
2021/04/21 02:01:00;;;;;;;7.07;3.50;;;9.40;99.90;;;;;;5040202;28;20209;-68
2021/04/21 02:03:32;;;;;;;6.60;3.70;;;9.40;99.90;;;;;;5050169;28;20205;-68
2021/04/21 02:06:40;;;;;;;6.63;3.90;;;9.40;99.90;;;;;;5046342;28;20209;-68
2021/04/21 02:09:29;;;;;;;8.03;3.80;;;9.30;99.90;;;;;;4981973;28;20300;-68
2021/04/21 02:12:05;;;;;;;8.37;4.20;;;9.30;99.90;;;;;;4988727;28;20211;-67
2021/04/21 02:14:41;;;;;;;8.60;3.93;;;9.40;99.90;;;;;;4969062;28;20681;-67
2021/04/21 02:17:20;;;;;;;6.70;4.13;;;9.30;99.90;;;;;;4985461;28;20206;-67
2021/04/21 02:19:59;;;;;;;6.23;3.87;;;9.30;99.90;;;;;;4986054;28;20688;-67
2021/04/21 02:22:36;;;;;;;5.30;3.67;;;9.30;99.90;;;;;;4994991;28;20225;-67
2021/04/21 02:25:15;;;;;;;6.87;3.97;;;9.30;99.90;;;;;;4987421;28;20226;-67
2021/04/21 02:27:54;;;;;;;7.17;4.10;;;9.20;99.90;;;;;;4980300;28;20256;-67
2021/04/21 02:30:33;;;;;;;4.97;3.40;;;9.20;99.90;;;;;;4985219;28;20217;-67
2021/04/21 02:33:11;;;;;;;5.53;3.50;;;9.20;99.90;;;;;;5043095;28;20286;-67
2021/04/21 02:35:43;;;;;;;4.20;3.00;;;9.10;99.90;;;;;;5046641;28;20658;-68
2021/04/21 02:38:18;;;;;;;5.37;3.70;;;9.20;99.90;;;;;;5031118;28;20653;-68
2021/04/21 02:40:55;;;;;;;7.80;3.80;;;9.10;99.90;;;;;;5045070;28;20209;-67
2021/04/21 02:43:30;;;;;;;5.97;3.83;;;9.10;99.90;;;;;;5028899;28;20205;-67
2021/04/21 02:46:03;;;;;;;7.43;3.90;;;9.10;99.90;;;;;;5080952;28;20342;-68
2021/04/21 02:48:42;;;;;;;9.37;3.97;;;9.10;99.90;;;;;;5109117;28;20671;-68
2021/04/21 02:51:14;;;;;;;6.03;3.60;;;9.10;99.90;;;;;;5110187;28;20212;-67
2021/04/21 02:53:47;;;;;;;4.60;3.80;;;9.00;99.90;;;;;;5106727;28;20549;-68
2021/04/21 02:56:23;;;;;;;6.73;3.77;;;9.00;99.90;;;;;;5105325;28;20245;-68
2021/04/21 02:58:59;;;;;;;5.77;3.53;;;9.00;99.90;;;;;;5107167;28;20212;-67
2021/04/21 03:01:33;;;;;;;7.33;3.90;;;8.90;99.90;;;;;;5105092;28;20256;-67
2021/04/21 03:04:07;;;;;;;4.97;3.40;;;8.90;99.90;;;;;;5108852;28;20203;-68
2021/04/21 03:06:37;;;;;;;6.40;3.63;;;8.90;99.90;;;;;;5102978;28;20244;-67
2021/04/21 03:09:07;;;;;;;4.07;3.30;;;8.90;99.90;;;;;;5103357;28;20362;-67
2021/04/21 03:11:35;;;;;;;7.13;4.00;;;8.90;99.90;;;;;;5114266;28;20674;-67
2021/04/21 03:14:03;;;;;;;5.40;3.67;;;8.90;99.90;;;;;;5114339;28;20198;-67
2021/04/21 03:16:34;;;;;;;6.30;3.60;;;8.80;99.90;;;;;;5107870;28;20203;-67
2021/04/21 03:19:05;;;;;;;6.30;3.83;;;8.80;99.90;;;;;;5107199;27;20214;-68
2021/04/21 03:21:36;;;;;;;5.83;3.60;;;8.80;99.90;;;;;;5112802;27;20245;-68
2021/04/21 03:24:09;;;;;;;4.70;3.60;;;8.70;99.90;;;;;;5116770;27;20313;-68
2021/04/21 03:26:39;;;;;;;7.30;3.57;;;8.70;99.90;;;;;;5115166;27;20204;-68
2021/04/21 03:29:09;;;;;;;6.00;3.53;;;8.70;99.90;;;;;;5112497;27;20187;-68
2021/04/21 03:31:37;;;;;;;5.60;3.50;;;8.70;99.90;;;;;;5114485;27;20277;-68
2021/04/21 03:34:08;;;;;;;5.03;3.10;;;8.70;99.90;;;;;;5112734;27;20205;-68
2021/04/21 03:36:38;;;;;;;4.83;3.43;;;8.70;99.90;;;;;;5113577;27;20288;-68
2021/04/21 03:39:05;;;;;;;5.73;3.67;;;8.70;99.90;;;;;;5108338;27;20198;-68
2021/04/21 03:41:32;;;;;;;6.83;3.60;;;8.70;99.90;;;;;;5111607;27;20198;-68
2021/04/21 03:44:00;;;;;;;5.20;3.37;;;8.70;99.90;;;;;;5111118;28;20567;-68
2021/04/21 03:46:27;;;;;;;9.23;3.87;;;8.70;99.90;;;;;;5109849;28;20233;-68
2021/04/21 03:48:55;;;;;;;5.20;3.97;;;8.70;99.90;;;;;;5112075;27;20621;-68
2021/04/21 03:51:23;;;;;;;7.07;3.97;;;9.40;99.90;;;;;;5111927;27;20277;-69
2021/04/21 03:53:51;;;;;;;6.97;4.00;;;8.70;99.90;;;;;;5112061;27;20252;-68
2021/04/21 03:56:24;;;;;;;6.17;3.60;;;8.70;99.90;;;;;;5127387;27;20205;-68
2021/04/21 03:58:53;;;;;;;7.33;3.60;;;8.70;99.90;;;;;;5111359;27;20590;-68
2021/04/21 04:01:23;;;;;;;5.23;3.43;;;8.70;99.90;;;;;;5106115;28;20683;-68
2021/04/21 04:03:53;;;;;;;6.10;3.43;;;8.70;99.90;;;;;;5111685;27;20197;-68
2021/04/21 04:06:24;;;;;;;5.77;3.77;;;8.70;99.90;;;;;;5110474;27;20211;-68
2021/04/21 04:08:57;;;;;;;3.60;3.20;;;8.80;99.90;;;;;;5118292;27;20573;-68
2021/04/21 04:11:27;;;;;;;5.17;3.63;;;8.80;99.90;;;;;;5110411;27;20328;-68
2021/04/21 04:14:02;;;;;;;7.30;3.50;;;8.80;99.90;;;;;;5109519;27;20205;-68
2021/04/21 04:16:31;;;;;;;5.43;3.43;;;8.80;99.90;;;;;;5108280;27;20201;-68
2021/04/21 04:19:00;;;;;;;5.77;3.20;;;8.70;99.90;;;;;;5109875;27;20208;-68
2021/04/21 04:21:33;;;;;;;6.77;4.00;;;8.90;99.90;;;;;;5108095;27;20224;-68
2021/04/21 04:24:01;;;;;;;6.13;3.83;;;8.90;99.90;;;;;;5114641;27;20264;-68
2021/04/21 04:26:28;;;;;;;6.50;3.70;;;9.00;99.90;;;;;;5115123;27;20236;-68
2021/04/21 04:28:55;;;;;;;6.33;3.47;;;9.00;99.90;;;;;;5116881;27;20201;-68
2021/04/21 04:31:24;;;;;;;4.47;3.20;;;9.00;99.90;;;;;;5107660;28;20219;-68
2021/04/21 04:33:51;;;;;;;4.83;3.27;;;9.00;99.90;;;;;;5111331;27;20192;-68
2021/04/21 04:36:17;;;;;;;5.90;3.60;;;9.10;99.90;;;;;;5112163;27;20191;-68
2021/04/21 04:38:46;;;;;;;5.70;3.17;;;9.10;99.90;;;;;;5113590;27;20202;-68
2021/04/21 04:41:13;;;;;;;5.73;3.73;;;9.10;99.90;;;;;;5111089;27;20183;-68
2021/04/21 04:43:42;;;;;;;4.63;3.20;;;9.10;99.90;;;;;;5112002;27;20205;-68
2021/04/21 04:46:12;;;;;;;7.47;3.30;;;9.20;99.90;;;;;;5109810;28;20283;-68
2021/04/21 04:48:44;;;;;;;8.50;3.70;;;9.30;99.90;;;;;;5112691;27;20202;-68
2021/04/21 04:51:12;;;;;;;4.67;3.17;;;9.30;99.90;;;;;;5109704;27;20743;-68
2021/04/21 04:53:40;;;;;;;4.83;3.00;;;9.30;99.90;;;;;;5115097;27;20272;-68
2021/04/21 04:56:08;;;;;;;4.93;3.20;;;9.40;99.90;;;;;;5110511;27;20206;-68
2021/04/21 04:58:36;;;;;;;5.67;3.57;;;9.50;99.90;;;;;;5110217;28;20868;-68
2021/04/21 05:01:05;;;;;;;4.27;3.03;;;9.60;99.90;;;;;;5101018;27;20285;-68
2021/04/21 05:03:39;;;;;;;4.47;3.03;;;9.60;99.90;;;;;;5110843;27;20309;-68
2021/04/21 05:06:09;;;;;;;3.83;2.93;;;9.70;99.90;;;;;;5109352;27;20246;-68
2021/04/21 05:08:43;;;;;;;5.47;2.97;;;9.80;99.90;;;;;;5110693;27;20207;-67
2021/04/21 05:11:14;;;;;;;3.60;2.60;;;9.80;99.90;;;;;;5109591;27;20194;-68
2021/04/21 05:13:45;;;;;;;3.63;2.67;;;9.90;99.90;;;;;;5111910;27;20286;-68
2021/04/21 05:16:53;;;;;;;4.67;2.50;;;10.00;99.90;;;;;;5114106;27;20207;-68
2021/04/21 05:19:47;;;;;;;3.80;2.63;;;10.10;99.70;;;;;;5047556;28;20320;-67
2021/04/21 05:22:53;;;;;;;3.73;3.13;;;10.20;99.30;;;;;;5047776;28;20240;-68
2021/04/21 05:26:01;;;;;;;3.50;2.70;;;10.30;99.00;;;;;;5044411;28;20894;-68
2021/04/21 05:28:56;;;;;;;4.57;3.17;;;10.70;98.60;;;;;;5041199;28;20214;-67
2021/04/21 05:32:23;;;;;;;4.10;2.97;;;11.30;97.70;;;;;;5050159;28;20214;-68
2021/04/21 05:35:26;;;;;;;3.57;2.93;;;11.80;97.10;;;;;;5048698;28;20209;-68
2021/04/21 05:38:43;;;;;;;8.40;2.87;;;12.50;95.80;;;;;;4985874;28;20297;-68
2021/04/21 05:41:43;;;;;;;4.47;3.20;;;13.10;94.40;;;;;;4983571;28;20259;-67
2021/04/21 05:44:53;;;;;;;6.43;3.30;;;13.50;93.40;;;;;;4987366;28;20245;-67
2021/04/21 05:48:10;;;;;;;6.07;3.97;;;13.80;92.50;;;;;;4987454;28;20229;-68
2021/04/21 05:51:13;;;;;;;7.40;4.13;;;14.20;91.10;;;;;;4909891;29;20202;-68
2021/04/21 05:54:18;;;;;;;9.53;4.23;;;14.50;90.00;;;;;;4893495;29;20327;-68
2021/04/21 05:57:20;;;;;;;6.53;4.23;;;15.00;87.40;;;;;;4912654;29;20299;-68
2021/04/21 06:00:20;;;;;;;8.53;4.83;;;15.60;84.60;;;;;;4908553;29;20221;-68
2021/04/21 06:02:49;;;;;;;9.13;4.53;;;16.20;81.10;;;;;;4834991;29;20288;-68
2021/04/21 06:05:19;;;;;;;7.47;4.43;;;16.90;77.80;;;;;;4828947;29;20232;-68
2021/04/21 06:07:45;;;;;;;7.37;4.43;;;17.70;74.60;;;;;;4834566;29;20250;-68
2021/04/21 06:10:20;;;;;;;6.33;4.13;;;18.60;70.80;;;;;;4834815;29;20220;-68
2021/04/21 06:12:47;;;;;;;8.77;4.60;;;19.50;66.90;;;;;;4834676;29;20264;-68
2021/04/21 06:15:15;;;;;;;4.93;3.70;;;20.40;63.00;;;;;;4873166;29;20210;-68
2021/04/21 06:17:44;;;;;;;5.57;3.70;;;21.10;60.20;;;;;;4889578;29;20219;-68
2021/04/21 06:20:15;;;;;;;6.93;4.47;;;21.90;58.10;;;;;;4890511;29;20251;-68
2021/04/21 06:22:42;;;;;;;8.53;3.70;;;22.90;55.80;;;;;;4890155;29;20235;-68
2021/04/21 06:25:11;;;;;;;6.10;3.80;;;23.90;54.60;;;;;;4915755;29;20234;-68
2021/04/21 06:27:38;;;;;;;6.60;4.23;;;24.70;51.60;;;;;;4922304;29;20329;-68
2021/04/21 06:30:06;;;;;;;7.72;4.50;;;25.50;49.60;;;;;;4915127;29;20645;-68
2021/04/21 06:32:33;;;;;;;8.93;4.57;;;26.00;47.50;;;;;;4920689;28;20233;-68
2021/04/21 06:35:07;;;;;;;7.15;4.50;;;26.40;46.60;;;;;;5003638;28;20236;-69
2021/04/21 06:37:36;;;;;;;12.60;5.53;;;26.70;45.70;;;;;;5020186;28;20210;-69
2021/04/21 06:40:06;;;;;;;11.98;5.28;;;26.90;44.90;;;;;;5079143;28;20240;-68
2021/04/21 06:42:34;;;;;;;10.52;5.30;;;27.00;43.70;;;;;;5101160;28;20682;-69
2021/04/21 06:45:01;;;;;;;11.98;5.15;;;27.10;43.50;;;;;;5100368;28;20203;-69
2021/04/21 06:47:29;;;;;;;7.38;5.00;;;27.20;43.10;;;;;;5104804;28;20667;-68
2021/04/21 06:50:00;;;;;;;13.15;5.55;;;27.60;42.70;;;;;;5102257;28;20679;-68
2021/04/21 06:52:35;;;;;;;9.65;5.85;;;28.10;42.20;;;;;;5105349;28;20230;-67
2021/04/21 06:55:03;;;;;;;9.18;5.40;;;28.50;40.40;;;;;;5101489;28;20598;-66
2021/04/21 06:57:30;;;;;;;10.73;4.97;;;29.00;39.40;;;;;;5101850;28;20203;-68
2021/04/21 07:00:09;;;;;;;7.32;4.60;;;29.50;38.60;;;;;;5098032;28;20203;-66
2021/04/21 07:02:40;;;;;;;7.22;4.53;;;30.00;37.90;;;;;;5099993;28;20562;-66
2021/04/21 07:05:30;;;;;;;7.15;4.65;;;30.40;37.10;;;;;;5104624;28;20184;-66
2021/04/21 07:08:03;;;;;;;4.68;4.07;;;30.80;36.40;;;;;;5099540;28;20518;-67
2021/04/21 07:10:30;;;;;;;7.07;4.00;;;31.00;35.60;;;;;;5104489;28;20192;-67
2021/04/21 07:12:57;;;;;;;6.07;4.25;;;31.40;35.10;;;;;;5102756;28;20737;-67
2021/04/21 07:15:25;;;;;;;9.52;4.03;;;31.80;34.50;;;;;;5094939;28;20196;-67
2021/04/21 07:17:51;;;;;;;6.00;3.90;;;31.90;34.00;;;;;;5103064;28;20218;-67
2021/04/21 07:20:22;;;;;;;7.18;3.72;;;32.20;33.60;;;;;;5102726;28;20198;-68
2021/04/21 07:22:50;;;;;;;4.00;3.10;;;32.50;32.90;;;;;;5101579;28;20477;-68
2021/04/21 07:25:19;;;;;;;3.10;2.90;;;33.00;32.40;;;;;;5100030;28;20579;-67
2021/04/21 07:27:50;;;;;;;3.25;3.03;;;33.50;31.90;;;;;;5104379;28;20196;-66
2021/04/21 07:30:25;;;;;;;2.80;2.60;;;34.10;30.80;;;;;;5101317;28;20211;-66
2021/04/21 07:32:52;;;;;;;2.72;2.53;;;35.00;30.00;;;;;;5103872;28;20668;-66
2021/04/21 07:35:21;;;;;;;2.88;2.40;;;36.40;29.30;;;;;;5102147;28;20199;-67
2021/04/21 07:37:49;;;;;;;3.40;2.83;;;37.70;28.20;;;;;;5103047;28;20503;-67
2021/04/21 07:40:34;;;;;;;2.70;2.50;;;38.80;27.00;;;;;;5101264;28;20593;-67
2021/04/21 07:43:10;;;;;;;4.65;2.90;;;40.30;26.30;;;;;;5102232;28;20199;-66
2021/04/21 07:45:54;;;;;;;2.70;2.50;;;41.60;25.50;;;;;;5103330;28;20192;-66
2021/04/21 07:48:46;;;;;;;5.45;2.67;;;42.70;24.70;;;;;;5105422;28;20196;-67
2021/04/21 07:51:38;;;;;;;2.75;2.55;;;43.80;24.00;;;;;;5104764;28;20278;-67
2021/04/21 07:54:27;;;;;;;4.00;3.55;;;44.70;23.30;;;;;;5118270;27;20192;-67
2021/04/21 07:56:58;;;;;;;17.25;7.22;;;45.20;22.50;;;;;;5104321;28;20239;-68
2021/04/21 07:59:26;;;;;;;15.95;6.30;;;45.00;21.30;;;;;;5102362;28;20269;-68
2021/04/21 08:01:54;;;;;;;13.43;6.90;;;44.20;21.60;;;;;;5101132;28;20632;-68
2021/04/21 08:04:23;;;;;;;9.75;5.75;;;44.00;21.40;;;;;;5103134;28;20567;-67
2021/04/21 08:06:53;;;;;;;17.02;6.63;;;44.10;21.20;;;;;;5106584;27;20195;-68
2021/04/21 08:09:21;;;;;;;10.77;6.38;;;44.50;21.10;;;;;;5104972;28;20286;-68
2021/04/21 08:12:02;;;;;;;12.68;6.53;;;44.70;21.10;;;;;;5102131;27;20202;-68
2021/04/21 08:14:43;;;;;;;9.13;6.53;;;45.10;21.10;;;;;;5100861;27;20207;-68
2021/04/21 08:17:10;;;;;;;9.75;7.13;;;45.80;21.40;;;;;;5103718;27;20277;-67
2021/04/21 08:19:38;;;;;;;6.80;5.95;;;46.40;21.10;;;;;;5104770;27;20222;-68
2021/04/21 08:22:05;;;;;;;9.65;6.03;;;46.70;20.30;;;;;;5102949;27;20222;-68
2021/04/21 08:24:43;;;;;;;9.68;5.70;;;47.20;20.30;;;;;;5104753;27;20401;-68
2021/04/21 08:27:12;;;;;;;8.93;6.30;;;47.60;20.10;;;;;;5104555;28;20701;-68
2021/04/21 08:29:39;;;;;;;17.02;6.75;;;48.30;19.90;;;;;;5105837;27;20206;-64
2021/04/21 08:32:07;;;;;;;11.25;6.88;;;48.50;19.90;;;;;;5103809;27;20346;-64
2021/04/21 08:34:33;;;;;;;13.95;7.35;;;48.30;18.70;;;;;;5105026;28;20203;-63
2021/04/21 08:37:00;;;;;;;17.33;7.32;;;48.10;18.50;;;;;;5104332;27;20623;-63
2021/04/21 08:39:27;;;;;;;14.85;7.13;;;47.90;18.30;;;;;;5106650;28;20686;-65
2021/04/21 08:41:59;;;;;;;11.32;6.25;;;47.80;18.50;;;;;;5106721;28;20302;-64
2021/04/21 08:44:29;;;;;;;7.88;5.85;;;48.10;18.80;;;;;;5102052;27;20306;-65
2021/04/21 08:47:00;;;;;;;7.80;5.40;;;48.50;18.80;;;;;;5121275;27;20195;-66
2021/04/21 08:49:30;;;;;;;9.25;6.60;;;48.90;18.50;;;;;;5105871;27;20562;-67
2021/04/21 08:51:58;;;;;;;19.80;6.63;;;49.40;18.30;;;;;;5103044;27;20240;-66
2021/04/21 08:54:26;;;;;;;8.35;5.90;;;49.60;18.00;;;;;;5105012;27;20533;-65
2021/04/21 08:56:57;;;;;;;11.75;5.90;;;48.90;17.70;;;;;;5105084;28;20194;-64
2021/04/21 08:59:24;;;;;;;9.13;6.18;;;48.90;17.80;;;;;;5104597;27;20206;-64
2021/04/21 09:01:50;;;;;;;12.35;6.60;;;49.10;17.90;;;;;;5099122;28;20230;-65
2021/04/21 09:04:18;;;;;;;8.75;6.95;;;49.30;17.80;;;;;;5107060;27;20195;-65
2021/04/21 09:06:46;;;;;;;6.13;5.53;;;49.40;17.30;;;;;;5106022;27;20302;-65
2021/04/21 09:09:14;;;;;;;13.27;6.20;;;49.50;17.60;;;;;;5103187;27;20199;-65
2021/04/21 09:11:41;;;;;;;11.63;6.45;;;49.90;17.60;;;;;;5102363;28;20203;-65
2021/04/21 09:14:07;;;;;;;16.45;7.00;;;50.10;17.20;;;;;;5105774;27;20195;-65
2021/04/21 09:16:34;;;;;;;11.00;6.20;;;50.20;16.90;;;;;;5104413;27;20225;-72
2021/04/21 09:19:09;;;;;;;13.90;6.38;;;49.90;17.10;;;;;;5106320;27;20667;-65
2021/04/21 09:21:38;;;;;;;9.40;5.53;;;49.50;17.20;;;;;;5103501;28;20218;-68
2021/04/21 09:24:06;;;;;;;9.85;5.40;;;49.40;17.80;;;;;;5106728;27;20201;-68
2021/04/21 09:26:34;;;;;;;7.65;4.80;;;49.40;17.40;;;;;;5107878;27;20604;-68
2021/04/21 09:29:01;;;;;;;5.22;4.70;;;48.90;17.20;;;;;;5101276;27;20187;-66
2021/04/21 09:31:29;;;;;;;7.53;5.10;;;48.60;17.20;;;;;;5104749;27;20274;-66
2021/04/21 09:34:08;;;;;;;6.70;4.00;;;47.90;17.20;;;;;;5106654;27;20241;-66
2021/04/21 09:36:38;;;;;;;5.85;4.00;;;46.40;17.50;;;;;;5106400;27;20191;-66
2021/04/21 09:39:16;;;;;;;9.18;4.47;;;45.10;17.80;;;;;;5102034;28;20540;-67
2021/04/21 09:41:44;;;;;;;6.03;4.80;;;43.70;18.10;;;;;;5105479;27;20433;-67
2021/04/21 09:44:12;;;;;;;5.90;4.70;;;43.10;18.30;;;;;;5103114;28;20248;-67
2021/04/21 09:46:39;;;;;;;7.30;4.20;;;42.40;18.50;;;;;;5103663;27;20237;-67
2021/04/21 09:49:30;;;;;;;4.40;4.00;;;41.50;18.80;;;;;;5106142;27;20195;-67
2021/04/21 09:51:58;;;;;;;3.70;3.40;;;41.50;18.90;;;;;;5101911;27;20450;-66
2021/04/21 09:54:33;;;;;;;2.70;2.60;;;41.60;18.70;;;;;;5098998;28;20694;-66
2021/04/21 09:57:07;;;;;;;3.38;2.47;;;41.50;18.70;;;;;;5105992;27;20210;-66
2021/04/21 09:59:34;;;;;;;2.65;2.55;;;40.70;18.60;;;;;;5103911;28;20190;-65
2021/04/21 10:02:00;;;;;;;3.35;3.15;;;39.80;19.50;;;;;;5105709;27;20577;-66
2021/04/21 10:04:29;;;;;;;4.40;3.50;;;39.90;19.10;;;;;;5104284;27;20199;-66
2021/04/21 10:06:58;;;;;;;6.38;3.65;;;41.30;19.20;;;;;;5102726;27;20279;-68
2021/04/21 10:09:31;;;;;;;4.25;3.28;;;43.00;18.80;;;;;;5101657;28;20187;-67
2021/04/21 10:12:15;;;;;;;6.35;3.80;;;43.90;19.10;;;;;;5104901;28;20188;-67
2021/04/21 10:14:44;;;;;;;6.93;4.50;;;43.80;17.80;;;;;;5101494;27;20195;-67
2021/04/21 10:17:12;;;;;;;12.65;5.32;;;42.20;17.90;;;;;;5103910;28;20265;-67
2021/04/21 10:19:40;;;;;;;10.10;4.45;;;40.20;18.40;;;;;;5103433;27;20204;-67
2021/04/21 10:22:10;;;;;;;8.52;3.75;;;39.40;19.10;;;;;;5106228;27;20215;-67
2021/04/21 10:24:36;;;;;;;4.00;3.60;;;40.10;19.20;;;;;;5103596;27;20241;-67
2021/04/21 10:27:04;;;;;;;7.05;4.20;;;40.10;18.90;;;;;;5106228;27;20270;-68
2021/04/21 10:29:31;;;;;;;3.80;3.40;;;39.30;19.00;;;;;;5101134;28;20286;-71
2021/04/21 10:31:58;;;;;;;3.08;2.88;;;38.00;19.60;;;;;;5103649;27;21329;-71
2021/04/21 10:34:27;;;;;;;7.53;3.90;;;36.80;20.10;;;;;;5104768;28;20233;-71
2021/04/21 10:36:54;;;;;;;7.63;3.60;;;35.50;20.80;;;;;;5103591;28;20184;-70
2021/04/21 10:39:32;;;;;;;6.22;3.25;;;34.40;21.40;;;;;;5103222;28;20283;-70
2021/04/21 10:42:08;;;;;;;3.83;2.67;;;33.80;21.90;;;;;;5104523;27;20209;-71
2021/04/21 10:44:36;;;;;;;3.97;3.00;;;34.20;22.00;;;;;;5104621;28;20270;-71
2021/04/21 10:47:09;;;;;;;4.15;2.55;;;35.50;21.50;;;;;;5102784;28;20329;-71
2021/04/21 10:49:55;;;;;;;2.30;2.20;;;37.00;20.90;;;;;;5100073;28;20188;-71
2021/04/21 10:52:32;;;;;;;2.45;2.30;;;38.10;20.30;;;;;;5105609;27;20194;-71
2021/04/21 10:55:02;;;;;;;2.40;2.20;;;37.00;20.00;;;;;;5103774;28;20194;-71
2021/04/21 10:57:32;;;;;;;2.50;2.30;;;35.70;20.30;;;;;;5116233;27;20261;-71
2021/04/21 11:00:11;;;;;;;2.65;2.20;;;34.90;20.60;;;;;;5102545;28;20295;-71
2021/04/21 11:02:57;;;;;;;2.67;2.03;;;34.00;20.80;;;;;;5099267;28;20223;-71
2021/04/21 11:05:43;;;;;;;2.17;1.90;;;33.00;21.20;;;;;;5103249;28;20286;-71
2021/04/21 11:08:10;;;;;;;3.35;1.90;;;32.20;21.40;;;;;;5103582;28;20683;-70
2021/04/21 11:10:49;;;;;;;2.45;1.95;;;31.40;21.70;;;;;;5096771;28;20568;-70
2021/04/21 11:13:17;;;;;;;5.40;1.90;;;30.70;22.00;;;;;;5105483;28;20216;-70
2021/04/21 11:15:46;;;;;;;4.32;2.10;;;30.20;22.40;;;;;;5105394;28;20203;-71
2021/04/21 11:18:23;;;;;;;4.05;1.85;;;30.50;22.80;;;;;;5106476;28;20667;-70
2021/04/21 11:20:56;;;;;;;3.63;2.00;;;30.80;22.60;;;;;;5109284;28;20199;-70
2021/04/21 11:23:52;;;;;;;2.67;1.70;;;30.40;22.80;;;;;;5100990;28;20315;-70
2021/04/21 11:26:47;;;;;;;2.38;1.90;;;29.90;23.30;;;;;;5103658;28;20282;-70
2021/04/21 11:29:16;;;;;;;2.00;1.90;;;29.20;23.20;;;;;;5097420;28;20220;-70
2021/04/21 11:32:11;;;;;;;1.80;1.67;;;28.70;23.40;;;;;;5105356;28;20220;-70
2021/04/21 11:34:39;;;;;;;2.95;1.92;;;28.30;23.60;;;;;;5106120;28;20196;-69
2021/04/21 11:37:11;;;;;;;2.42;2.10;;;27.80;23.80;;;;;;5105523;28;20207;-70
2021/04/21 11:40:06;;;;;;;2.10;2.00;;;27.40;24.60;;;;;;5101814;28;20689;-70
2021/04/21 11:42:37;;;;;;;1.90;1.80;;;27.00;24.30;;;;;;5108613;28;20651;-69
2021/04/21 11:45:07;;;;;;;2.17;1.98;;;26.60;24.40;;;;;;5107032;27;20270;-70
2021/04/21 11:47:38;;;;;;;3.13;1.70;;;26.20;24.70;;;;;;5106246;27;20196;-70
2021/04/21 11:50:23;;;;;;;3.50;1.55;;;25.80;25.00;;;;;;5108091;27;20203;-69
2021/04/21 11:52:56;;;;;;;2.10;1.75;;;25.60;25.20;;;;;;5111809;27;20194;-68
2021/04/21 11:55:32;;;;;;;2.92;1.80;;;25.50;25.60;;;;;;5103880;28;20655;-67
2021/04/21 11:58:03;;;;;;;1.77;1.52;;;25.60;25.80;;;;;;5104221;27;20278;-67
2021/04/21 12:00:34;;;;;;;1.98;1.77;;;25.50;25.70;;;;;;5098768;27;20207;-67
2021/04/21 12:03:02;;;;;;;2.15;2.05;;;25.30;25.70;;;;;;5105145;27;20216;-69
2021/04/21 12:05:32;;;;;;;1.73;1.63;;;25.00;25.80;;;;;;5105699;27;20662;-67
2021/04/21 12:08:01;;;;;;;3.00;1.50;;;24.80;25.80;;;;;;5116082;27;20382;-68
2021/04/21 12:10:30;;;;;;;1.50;1.40;;;24.60;25.90;;;;;;5100885;27;20210;-68
2021/04/21 12:13:16;;;;;;;3.33;1.40;;;24.40;25.90;;;;;;5105238;27;20207;-68
2021/04/21 12:15:43;;;;;;;2.28;2.08;;;24.20;26.50;;;;;;5103383;27;20616;-68
2021/04/21 12:18:10;;;;;;;1.92;1.67;;;24.10;26.20;;;;;;5101777;27;20690;-68
2021/04/21 12:20:38;;;;;;;2.40;1.80;;;23.90;26.10;;;;;;5105485;27;20638;-68
2021/04/21 12:23:04;;;;;;;2.38;2.13;;;23.90;26.30;;;;;;5100897;27;20216;-69
2021/04/21 12:25:32;;;;;;;3.13;1.42;;;23.80;26.30;;;;;;5105558;27;20234;-67
2021/04/21 12:28:00;;;;;;;1.90;1.70;;;23.70;26.40;;;;;;5103332;27;20196;-68
2021/04/21 12:30:30;;;;;;;4.72;1.90;;;23.60;26.60;;;;;;5111551;27;20553;-68
2021/04/21 12:33:05;;;;;;;1.98;1.88;;;23.50;26.80;;;;;;5104294;27;20346;-68
2021/04/21 12:35:32;;;;;;;2.45;1.75;;;23.40;26.90;;;;;;5099978;27;20195;-68
2021/04/21 12:38:00;;;;;;;2.83;1.88;;;23.40;27.00;;;;;;5103139;27;20369;-67
2021/04/21 12:40:30;;;;;;;3.83;2.08;;;23.40;27.20;;;;;;5102896;27;20223;-67
2021/04/21 12:43:11;;;;;;;2.50;2.30;;;23.40;27.30;;;;;;5103940;27;20573;-68
2021/04/21 12:45:39;;;;;;;1.90;1.80;;;23.40;27.10;;;;;;5098457;27;20564;-67
2021/04/21 12:48:24;;;;;;;9.93;5.35;;;23.50;27.00;;;;;;5103354;27;20307;-68
2021/04/21 12:50:52;;;;;;;9.90;5.43;;;23.40;29.80;;;;;;5100172;28;20225;-68
2021/04/21 12:53:20;;;;;;;7.63;4.32;;;23.20;31.50;;;;;;5106011;28;20806;-67
2021/04/21 12:55:47;;;;;;;9.35;4.93;;;23.00;32.00;;;;;;5103776;27;20212;-67
2021/04/21 12:58:30;;;;;;;5.72;4.00;;;22.80;32.00;;;;;;5104463;27;20655;-68
2021/04/21 13:01:11;;;;;;;5.25;3.60;;;22.80;32.00;;;;;;5100722;27;20699;-69
2021/04/21 13:03:38;;;;;;;4.25;3.30;;;22.80;31.90;;;;;;5122105;27;20247;-69
2021/04/21 13:06:05;;;;;;;6.55;3.42;;;22.80;31.80;;;;;;5104911;27;20914;-70
2021/04/21 13:08:33;;;;;;;5.32;3.50;;;22.90;31.40;;;;;;5103455;27;20215;-69
2021/04/21 13:11:01;;;;;;;4.75;3.13;;;22.80;30.60;;;;;;5105702;27;20195;-69
2021/04/21 13:13:29;;;;;;;15.70;5.78;;;22.90;30.90;;;;;;5102965;27;20283;-69
2021/04/21 13:15:58;;;;;;;6.80;3.97;;;22.70;31.50;;;;;;5106301;27;20266;-68
2021/04/21 13:18:35;;;;;;;8.95;5.38;;;22.50;31.10;;;;;;5103895;27;20632;-69
2021/04/21 13:21:06;;;;;;;13.32;7.72;;;22.40;32.30;;;;;;5106541;27;20219;-69